Time;durP1;ratioP1;P1;durP2;ratioP2;P2;SDS_P1;SDS_P2;PMS_P1;PMS_P2;Temp;Humidity;BMP_temperature;BMP_pressure;BME280_temperature;BME280_humidity;BME280_pressure;Samples;Min_cycle;Max_cycle;Signal;HPM_P1;HPM_P2
2022/11/19 00:01:57;;;;;;;0.00;0.00;;;;;;;7.13;100.00;97849.84;5005444;28;20244;-58
2022/11/19 00:04:24;;;;;;;0.00;0.00;;;;;;;7.11;100.00;97844.00;5000940;28;20240;-59
2022/11/19 00:06:51;;;;;;;0.10;0.10;;;;;;;7.07;100.00;97838.25;5006384;28;20324;-58
2022/11/19 00:09:19;;;;;;;0.00;0.00;;;;;;;7.08;100.00;97839.91;5001266;28;20240;-60
2022/11/19 00:14:30;;;;;;;0.00;0.00;;;;;;;7.06;100.00;97841.81;5000745;28;20236;-58
2022/11/19 00:16:57;;;;;;;0.00;0.00;;;;;;;7.11;100.00;97837.97;5007623;28;20239;-59
2022/11/19 00:19:23;;;;;;;0.00;0.00;;;;;;;7.08;100.00;97841.69;5001799;28;20239;-58
2022/11/19 00:21:50;;;;;;;0.00;0.00;;;;;;;7.08;100.00;97837.31;5003104;28;20258;-58
2022/11/19 00:24:17;;;;;;;0.00;0.00;;;;;;;7.10;100.00;97847.56;5000255;28;20693;-59
2022/11/19 00:26:45;;;;;;;0.00;0.00;;;;;;;7.06;100.00;97848.81;5005141;28;20235;-58
2022/11/19 00:29:11;;;;;;;0.00;0.00;;;;;;;7.07;100.00;97847.84;5017626;28;20228;-59
2022/11/19 00:31:38;;;;;;;0.00;0.00;;;;;;;7.06;100.00;97841.81;5005550;28;20244;-59
2022/11/19 00:34:05;;;;;;;0.00;0.00;;;;;;;7.04;100.00;97848.13;5003462;28;20235;-59
2022/11/19 00:36:31;;;;;;;0.00;0.00;;;;;;;7.05;100.00;97845.38;5002627;28;20299;-58
2022/11/19 00:38:59;;;;;;;0.00;0.00;;;;;;;7.06;100.00;97841.03;5004684;28;20282;-58
2022/11/19 00:41:26;;;;;;;0.00;0.00;;;;;;;7.06;100.00;97843.63;5000986;28;20243;-58
2022/11/19 00:43:54;;;;;;;0.00;0.00;;;;;;;7.08;100.00;97841.69;5005490;28;20244;-59
2022/11/19 00:46:22;;;;;;;0.00;0.00;;;;;;;7.05;100.00;97836.78;4999919;28;20239;-58
2022/11/19 00:48:51;;;;;;;0.00;0.00;;;;;;;7.00;100.00;97836.44;5001642;28;20713;-59
2022/11/19 00:51:19;;;;;;;0.00;0.00;;;;;;;7.03;100.00;97833.53;5004744;28;20237;-58
2022/11/19 00:53:46;;;;;;;0.00;0.00;;;;;;;7.07;100.00;97837.47;5005439;28;20866;-59
2022/11/19 00:56:14;;;;;;;0.00;0.00;;;;;;;7.06;100.00;97836.63;5003313;28;20699;-59
2022/11/19 00:58:42;;;;;;;0.00;0.00;;;;;;;7.11;100.00;97843.16;5004521;28;20715;-59
2022/11/19 01:01:10;;;;;;;0.00;0.00;;;;;;;7.10;100.00;97842.38;5017548;28;20629;-59
2022/11/19 01:03:38;;;;;;;0.00;0.00;;;;;;;7.11;100.00;97841.41;4999745;28;20232;-60
2022/11/19 01:06:05;;;;;;;0.00;0.00;;;;;;;7.09;100.00;97845.91;5004234;28;22031;-59
2022/11/19 01:08:32;;;;;;;0.00;0.00;;;;;;;7.07;100.00;97850.44;5001361;28;20278;-59
2022/11/19 01:11:04;;;;;;;0.07;0.07;;;;;;;7.05;100.00;97847.97;5001688;28;20247;-59
2022/11/19 01:13:37;;;;;;;0.00;0.00;;;;;;;7.08;100.00;97847.69;5000515;28;20239;-59
2022/11/19 01:16:06;;;;;;;0.00;0.00;;;;;;;7.08;100.00;97852.88;5002755;28;20233;-58
2022/11/19 01:18:35;;;;;;;0.00;0.00;;;;;;;7.05;100.00;97850.56;5004085;28;20232;-59
2022/11/19 01:21:02;;;;;;;0.10;0.10;;;;;;;7.00;100.00;97847.59;5005093;28;20323;-58
2022/11/19 01:23:29;;;;;;;0.00;0.00;;;;;;;7.02;100.00;97847.47;4999324;28;20225;-58
2022/11/19 01:25:56;;;;;;;0.00;0.00;;;;;;;7.01;100.00;97851.03;5004080;28;20243;-59
2022/11/19 01:28:22;;;;;;;0.00;0.00;;;;;;;7.01;100.00;97853.63;5001663;28;20612;-58
2022/11/19 01:30:49;;;;;;;0.00;0.00;;;;;;;7.02;100.00;97855.25;5002724;28;20327;-58
2022/11/19 01:33:21;;;;;;;0.00;0.00;;;;;;;7.01;100.00;97851.84;4998454;28;20235;-58
2022/11/19 01:35:56;;;;;;;0.00;0.00;;;;;;;7.04;100.00;97848.94;5005138;28;20227;-58
2022/11/19 01:38:23;;;;;;;0.00;0.00;;;;;;;7.05;100.00;97847.97;5000101;28;20230;-57
2022/11/19 01:40:50;;;;;;;0.00;0.00;;;;;;;7.06;100.00;97847.00;5005329;28;20255;-58
2022/11/19 01:43:16;;;;;;;0.00;0.00;;;;;;;7.06;100.00;97849.59;5003560;28;20561;-59
2022/11/19 01:45:47;;;;;;;0.00;0.00;;;;;;;7.08;100.00;97846.88;5005188;28;20232;-58
2022/11/19 01:48:19;;;;;;;0.00;0.00;;;;;;;7.11;100.00;97850.94;5000024;28;20329;-59
2022/11/19 01:50:51;;;;;;;0.00;0.00;;;;;;;7.10;100.00;97855.34;4999441;28;20232;-58
2022/11/19 01:53:24;;;;;;;0.00;0.00;;;;;;;7.13;100.00;97854.22;5002595;28;20701;-58
2022/11/19 01:55:50;;;;;;;0.00;0.00;;;;;;;7.09;100.00;97856.31;5005957;28;20243;-59
2022/11/19 01:58:23;;;;;;;0.10;0.10;;;;;;;7.09;100.00;97851.91;5000529;28;20266;-57
2022/11/19 02:00:50;;;;;;;0.00;0.00;;;;;;;7.11;100.00;97856.97;5001768;28;20241;-58
2022/11/19 02:03:18;;;;;;;0.00;0.00;;;;;;;7.11;100.00;97849.19;4996947;28;20236;-57
2022/11/19 02:05:46;;;;;;;0.00;0.00;;;;;;;7.15;100.00;97860.91;5005205;28;20824;-58
2022/11/19 02:08:41;;;;;;;0.00;0.00;;;;;;;7.15;100.00;97858.31;4997387;28;20625;-59
2022/11/19 02:11:30;;;;;;;0.00;0.00;;;;;;;7.15;100.00;97860.91;5009876;28;20264;-58
2022/11/19 02:14:08;;;;;;;0.00;0.00;;;;;;;7.12;100.00;97866.38;5006414;28;20228;-59
2022/11/19 02:16:47;;;;;;;0.00;0.00;;;;;;;7.09;100.00;97861.50;5004019;28;20244;-59
2022/11/19 02:19:37;;;;;;;0.00;0.00;;;;;;;7.12;100.00;97862.97;5002924;28;20238;-59
2022/11/19 02:22:16;;;;;;;0.10;0.10;;;;;;;7.14;100.00;97861.88;5003956;28;20232;-58
2022/11/19 02:24:52;;;;;;;0.00;0.00;;;;;;;7.09;100.00;97859.69;5003507;28;20236;-59
2022/11/19 02:27:51;;;;;;;0.00;0.00;;;;;;;7.09;100.00;97858.91;5003424;28;20232;-58
2022/11/19 02:30:19;;;;;;;0.00;0.00;;;;;;;7.08;100.00;97860.66;5000487;28;20773;-58
2022/11/19 02:32:58;;;;;;;0.00;0.00;;;;;;;7.06;100.00;97864.38;5007976;28;20577;-59
2022/11/19 02:35:35;;;;;;;0.10;0.10;;;;;;;7.01;100.00;97854.44;5002229;28;20235;-59
2022/11/19 02:38:09;;;;;;;0.00;0.00;;;;;;;6.97;100.00;97854.88;5004256;28;20224;-58
2022/11/19 02:40:41;;;;;;;0.00;0.00;;;;;;;6.97;100.00;97855.69;5005436;28;20274;-58
2022/11/19 02:43:16;;;;;;;0.10;0.10;;;;;;;6.97;100.00;97858.28;5004828;28;20256;-59
2022/11/19 02:45:49;;;;;;;0.07;0.07;;;;;;;6.98;100.00;97859.91;5001784;28;20251;-59
2022/11/19 02:48:22;;;;;;;0.00;0.00;;;;;;;6.96;100.00;97874.81;5002470;28;20245;-57
2022/11/19 02:50:52;;;;;;;0.10;0.10;;;;;;;6.98;100.00;97856.50;5005317;28;20265;-58
2022/11/19 02:53:18;;;;;;;0.00;0.00;;;;;;;6.94;100.00;97864.59;5006323;28;20220;-58
2022/11/19 02:56:09;;;;;;;0.00;0.00;;;;;;;6.96;100.00;97871.41;5007213;28;20227;-59
2022/11/19 03:04:31;;;;;;;0.00;0.00;;;;;;;6.94;100.00;97882.75;5000875;28;20237;-59
2022/11/19 03:07:02;;;;;;;0.10;0.10;;;;;;;6.93;100.00;97875.09;5005752;28;20582;-58
2022/11/19 03:09:30;;;;;;;0.07;0.07;;;;;;;6.93;100.00;97877.69;5004262;28;20239;-59
2022/11/19 03:12:04;;;;;;;0.00;0.00;;;;;;;6.93;100.00;97888.91;5003779;28;20328;-58
2022/11/19 03:17:30;;;;;;;0.00;0.00;;;;;;;6.90;100.00;97881.41;5004478;28;20235;-58
2022/11/19 03:20:04;;;;;;;0.00;0.00;;;;;;;6.91;100.00;97890.81;5008406;28;20238;-58
2022/11/19 03:22:35;;;;;;;0.00;0.00;;;;;;;6.88;100.00;97891.13;5006510;28;20724;-58
2022/11/19 03:25:07;;;;;;;0.00;0.00;;;;;;;6.81;100.00;97887.47;5005991;28;20293;-59
2022/11/19 03:27:40;;;;;;;0.00;0.00;;;;;;;6.87;100.00;97886.88;4997296;28;20232;-58
2022/11/19 03:30:11;;;;;;;0.10;0.10;;;;;;;6.87;100.00;97884.28;5005656;28;20230;-58
2022/11/19 03:32:45;;;;;;;0.00;0.00;;;;;;;6.86;100.00;97887.06;5001941;28;20245;-58
2022/11/19 03:35:16;;;;;;;0.00;0.00;;;;;;;6.89;100.00;97891.94;5003723;28;20251;-58
2022/11/19 03:37:46;;;;;;;0.00;0.00;;;;;;;6.86;100.00;97887.06;5004270;28;20730;-63
2022/11/19 03:40:16;;;;;;;0.00;0.00;;;;;;;6.86;100.00;97885.25;5004449;28;20301;-59
2022/11/19 03:42:46;;;;;;;0.00;0.00;;;;;;;6.84;100.00;97889.78;5003557;28;20225;-58
2022/11/19 03:45:17;;;;;;;0.00;0.00;;;;;;;6.89;100.00;97887.56;5004024;28;20216;-59
2022/11/19 03:47:49;;;;;;;0.10;0.10;;;;;;;6.90;100.00;97891.78;5002411;28;20254;-58
2022/11/19 03:50:23;;;;;;;0.00;0.00;;;;;;;6.85;100.00;97890.59;5000703;28;20355;-58
2022/11/19 03:52:50;;;;;;;0.00;0.00;;;;;;;6.87;100.00;97886.09;5002202;28;20743;-58
2022/11/19 03:55:17;;;;;;;0.00;0.00;;;;;;;6.83;100.00;97890.72;5004114;28;20248;-58
2022/11/19 03:57:44;;;;;;;0.00;0.00;;;;;;;6.84;100.00;97892.38;5008011;28;20281;-58
2022/11/19 04:00:11;;;;;;;0.07;0.07;;;;;;;6.85;100.00;97888.00;5005068;28;20282;-58
2022/11/19 04:02:41;;;;;;;0.00;0.00;;;;;;;6.86;100.00;97895.63;5000829;28;20716;-58
2022/11/19 04:05:09;;;;;;;0.00;0.00;;;;;;;6.84;100.00;97900.16;5004577;28;20248;-58
2022/11/19 04:07:36;;;;;;;0.00;0.00;;;;;;;6.88;100.00;97903.28;5002318;28;20232;-58
2022/11/19 04:10:02;;;;;;;0.00;0.00;;;;;;;6.84;100.00;97900.16;5006654;28;20229;-59
2022/11/19 04:12:29;;;;;;;0.07;0.07;;;;;;;6.83;100.00;97900.31;5003329;28;20235;-59
2022/11/19 04:14:55;;;;;;;0.00;0.00;;;;;;;6.85;100.00;97893.19;5016514;28;20232;-58
2022/11/19 04:17:22;;;;;;;0.00;0.00;;;;;;;6.84;100.00;97902.75;4999476;28;20236;-58
2022/11/19 04:19:48;;;;;;;0.00;0.00;;;;;;;6.83;100.00;97906.28;5006592;28;20248;-58
2022/11/19 04:22:16;;;;;;;0.00;0.00;;;;;;;6.82;100.00;97903.88;5002802;28;20239;-59
2022/11/19 04:24:43;;;;;;;0.10;0.10;;;;;;;6.82;100.00;97893.50;5006363;28;20291;-60
2022/11/19 04:27:09;;;;;;;0.00;0.00;;;;;;;6.80;100.00;97893.63;5002525;28;20479;-59
2022/11/19 04:29:36;;;;;;;0.00;0.00;;;;;;;6.82;100.00;97896.88;4998927;28;20240;-58
2022/11/19 04:32:03;;;;;;;0.00;0.00;;;;;;;6.77;100.00;97897.31;5189233;23;20254;-58
2022/11/19 04:34:30;;;;;;;0.00;0.00;;;;;;;6.76;100.00;97902.66;4994927;28;20624;-59
2022/11/19 04:36:56;;;;;;;0.00;0.00;;;;;;;6.77;100.00;97899.91;4999484;28;20240;-58
2022/11/19 04:39:24;;;;;;;0.00;0.00;;;;;;;6.79;100.00;97900.59;4993913;28;20291;-58
2022/11/19 04:41:50;;;;;;;0.00;0.00;;;;;;;6.73;100.00;97890.78;4995623;28;20290;-58
2022/11/19 04:44:17;;;;;;;0.00;0.00;;;;;;;6.75;100.00;97901.00;4990197;28;20244;-58
2022/11/19 04:46:44;;;;;;;0.07;0.07;;;;;;;6.77;100.00;97896.50;4993918;28;20305;-58
2022/11/19 04:49:10;;;;;;;0.00;0.00;;;;;;;6.81;100.00;97907.41;4992823;28;20245;-58
2022/11/19 04:51:37;;;;;;;0.00;0.00;;;;;;;6.79;100.00;97903.19;4991766;28;20233;-58
2022/11/19 04:54:04;;;;;;;0.10;0.10;;;;;;;6.79;100.00;97904.94;4994816;28;20573;-58
2022/11/19 04:56:31;;;;;;;0.03;0.03;;;;;;;6.77;100.00;97902.53;4992244;28;20555;-58
2022/11/19 04:58:58;;;;;;;0.00;0.00;;;;;;;6.76;100.00;97903.47;4993121;28;20326;-58
2022/11/19 05:01:24;;;;;;;0.00;0.00;;;;;;;6.78;100.00;97916.28;4990110;28;20236;-58
2022/11/19 05:03:51;;;;;;;0.00;0.00;;;;;;;6.79;100.00;97910.13;4992097;28;20236;-58
2022/11/19 05:06:18;;;;;;;0.00;0.00;;;;;;;6.77;100.00;97918.09;4988346;28;20707;-58
2022/11/19 05:08:44;;;;;;;0.00;0.00;;;;;;;6.76;100.00;97910.44;4990755;28;20298;-59
2022/11/19 05:11:11;;;;;;;0.10;0.10;;;;;;;6.75;100.00;97908.78;4987412;28;20236;-58
2022/11/19 05:13:39;;;;;;;0.00;0.00;;;;;;;6.74;100.00;97912.34;4993912;28;20314;-58
2022/11/19 05:16:06;;;;;;;0.00;0.00;;;;;;;6.73;100.00;97927.09;4993245;28;20634;-58
2022/11/19 05:18:33;;;;;;;0.00;0.00;;;;;;;6.76;100.00;97928.59;4988869;28;20651;-58
2022/11/19 05:21:00;;;;;;;0.00;0.00;;;;;;;6.72;100.00;97909.91;4992287;28;20240;-58
2022/11/19 05:23:26;;;;;;;0.03;0.03;;;;;;;6.74;100.00;97920.13;4988147;28;20306;-58
2022/11/19 05:25:56;;;;;;;0.00;0.00;;;;;;;6.70;100.00;97913.59;4994946;28;20228;-59
2022/11/19 05:28:23;;;;;;;0.03;0.03;;;;;;;6.71;100.00;97917.81;4988555;28;20236;-60
2022/11/19 05:30:53;;;;;;;0.00;0.00;;;;;;;6.73;100.00;97915.91;4990293;28;20273;-59
2022/11/19 05:33:19;;;;;;;0.00;0.00;;;;;;;6.73;100.00;97918.50;4987941;28;20239;-59
2022/11/19 05:35:46;;;;;;;0.00;0.00;;;;;;;6.78;100.00;97922.31;4992439;28;20240;-59
2022/11/19 05:38:13;;;;;;;0.00;0.00;;;;;;;6.79;100.00;97917.91;4984966;28;20573;-59
2022/11/19 05:40:39;;;;;;;0.00;0.00;;;;;;;6.76;100.00;97924.22;4991254;28;20225;-59
2022/11/19 05:43:06;;;;;;;0.00;0.00;;;;;;;6.74;100.00;97922.72;4993067;28;20233;-59
2022/11/19 05:45:33;;;;;;;0.07;0.07;;;;;;;6.73;100.00;97921.91;4993070;28;20348;-59
2022/11/19 05:48:01;;;;;;;0.00;0.00;;;;;;;6.74;100.00;97925.31;4992506;28;20269;-59
2022/11/19 05:50:27;;;;;;;0.00;0.00;;;;;;;6.73;100.00;97926.28;4992744;28;20216;-60
2022/11/19 05:52:54;;;;;;;0.00;0.00;;;;;;;6.79;100.00;97923.09;5006367;28;20302;-59
2022/11/19 05:55:20;;;;;;;0.00;0.00;;;;;;;6.73;100.00;97926.28;5003365;28;20298;-58
2022/11/19 05:57:50;;;;;;;0.00;0.00;;;;;;;6.71;100.00;97930.78;5008045;28;20240;-59
2022/11/19 06:00:17;;;;;;;0.10;0.10;;;;;;;6.68;100.00;97929.31;5002102;28;20249;-59
2022/11/19 06:02:43;;;;;;;0.00;0.00;;;;;;;6.67;100.00;97924.25;5007077;28;20676;-59
2022/11/19 06:05:12;;;;;;;0.00;0.00;;;;;;;6.70;100.00;97929.16;5005494;28;20728;-59
2022/11/19 06:07:38;;;;;;;0.00;0.00;;;;;;;6.71;100.00;97929.03;5004299;28;20232;-59
2022/11/19 06:10:09;;;;;;;0.00;0.00;;;;;;;6.69;100.00;97933.53;5007258;28;20275;-58
2022/11/19 06:12:35;;;;;;;0.00;0.00;;;;;;;6.72;100.00;97937.59;5005129;28;20292;-59
2022/11/19 06:15:02;;;;;;;0.00;0.00;;;;;;;6.75;100.00;97935.56;5007434;28;20243;-59
2022/11/19 06:17:29;;;;;;;0.00;0.00;;;;;;;6.75;100.00;97937.31;5004801;28;20235;-58
2022/11/19 06:19:56;;;;;;;0.00;0.00;;;;;;;6.74;100.00;97943.47;5007879;28;20806;-59
2022/11/19 06:22:24;;;;;;;0.00;0.00;;;;;;;6.74;100.00;97933.94;5004741;28;20774;-58
2022/11/19 06:24:50;;;;;;;0.10;0.10;;;;;;;6.74;100.00;97941.72;5006698;28;20282;-59
2022/11/19 06:27:17;;;;;;;0.00;0.00;;;;;;;6.77;100.00;97949.22;5003412;28;20294;-59
2022/11/19 06:29:43;;;;;;;0.00;0.00;;;;;;;6.77;100.00;97945.78;5007439;28;20236;-59
2022/11/19 06:32:13;;;;;;;0.03;0.03;;;;;;;6.79;100.00;97956.84;5003750;28;20691;-59
2022/11/19 06:34:39;;;;;;;0.10;0.10;;;;;;;6.75;100.00;97958.06;5006722;28;20754;-59
2022/11/19 06:37:06;;;;;;;0.00;0.00;;;;;;;6.75;100.00;97950.28;5007393;28;20933;-59
2022/11/19 06:39:34;;;;;;;0.00;0.00;;;;;;;6.78;100.00;97947.41;5002543;28;20290;-59
2022/11/19 06:42:34;;;;;;;0.00;0.00;;;;;;;6.74;100.00;97962.47;5007083;28;20711;-59
2022/11/19 06:44:47;;;;;;;0.07;0.07;;;;;;;6.76;100.00;97962.31;5003656;28;20232;-60
2022/11/19 06:47:14;;;;;;;0.00;0.00;;;;;;;6.78;100.00;97966.41;5003063;28;20220;-59
2022/11/19 06:49:41;;;;;;;0.00;0.00;;;;;;;6.81;100.00;97967.88;5006565;28;20241;-59
2022/11/19 06:52:07;;;;;;;0.00;0.00;;;;;;;6.84;100.00;97971.97;5004971;28;20243;-59
2022/11/19 06:54:35;;;;;;;0.00;0.00;;;;;;;6.81;100.00;97969.66;5003868;28;20240;-59
2022/11/19 06:57:01;;;;;;;0.10;0.10;;;;;;;6.77;100.00;97976.91;5006823;28;20236;-58
2022/11/19 06:59:28;;;;;;;0.00;0.00;;;;;;;6.83;100.00;97972.94;5004418;28;20232;-59
2022/11/19 07:01:55;;;;;;;0.00;0.00;;;;;;;6.74;100.00;97991.00;5006718;28;20236;-59
2022/11/19 07:04:21;;;;;;;0.00;0.00;;;;;;;6.83;100.00;97991.91;5003772;28;20232;-59
2022/11/19 07:06:48;;;;;;;0.10;0.10;;;;;;;6.81;100.00;97988.63;5006565;28;20240;-59
2022/11/19 07:09:15;;;;;;;0.00;0.00;;;;;;;6.82;100.00;97992.06;5003880;28;20240;-59
2022/11/19 07:11:43;;;;;;;0.00;0.00;;;;;;;6.84;100.00;97995.34;5006318;28;20310;-59
2022/11/19 07:14:09;;;;;;;0.00;0.00;;;;;;;6.82;100.00;97998.06;5006030;28;20221;-59
2022/11/19 07:16:37;;;;;;;0.00;0.00;;;;;;;6.83;100.00;97998.88;5002065;28;20248;-59
2022/11/19 07:19:05;;;;;;;0.00;0.00;;;;;;;6.84;100.00;98000.53;5006511;28;20620;-60
2022/11/19 07:21:32;;;;;;;0.00;0.00;;;;;;;6.84;100.00;98001.31;5003823;28;20248;-59
2022/11/19 07:24:00;;;;;;;0.10;0.10;;;;;;;6.85;100.00;98002.16;5005813;28;20275;-58
2022/11/19 07:26:27;;;;;;;0.00;0.00;;;;;;;6.85;100.00;98010.75;4992255;28;20303;-59
2022/11/19 07:28:59;;;;;;;0.00;0.00;;;;;;;6.79;100.00;98004.34;5006320;28;20752;-59
2022/11/19 07:31:26;;;;;;;0.00;0.00;;;;;;;6.84;100.00;98003.91;5002375;28;21062;-59
2022/11/19 07:33:56;;;;;;;0.00;0.00;;;;;;;6.88;100.00;97999.28;5005030;28;20700;-59
2022/11/19 07:36:23;;;;;;;0.03;0.03;;;;;;;6.88;100.00;98007.84;5002617;28;20233;-58
2022/11/19 07:38:51;;;;;;;0.00;0.00;;;;;;;6.81;100.00;98017.16;5005401;28;20244;-59
2022/11/19 07:44:03;;;;;;;0.00;0.00;;;;;;;6.90;100.00;98015.50;5006387;28;20226;-59
2022/11/19 07:46:29;;;;;;;0.00;0.00;;;;;;;6.90;100.00;98018.91;5002262;28;20287;-59
2022/11/19 07:48:57;;;;;;;0.00;0.00;;;;;;;6.92;100.00;98018.75;5005953;28;20243;-59
2022/11/19 07:51:27;;;;;;;0.00;0.00;;;;;;;7.01;100.00;98027.47;5002752;28;20252;-59
2022/11/19 07:53:54;;;;;;;0.00;0.00;;;;;;;7.08;100.00;98025.94;5006023;28;20236;-58
2022/11/19 07:56:21;;;;;;;0.00;0.00;;;;;;;7.08;100.00;98028.53;5002752;28;20252;-59
2022/11/19 07:58:48;;;;;;;0.00;0.00;;;;;;;7.17;100.00;98029.44;5005995;28;20230;-59
2022/11/19 08:01:18;;;;;;;0.00;0.00;;;;;;;7.17;100.00;98034.63;4999863;28;20241;-59
2022/11/19 08:03:45;;;;;;;0.00;0.00;;;;;;;7.22;100.00;98040.22;5005437;28;20229;-59
2022/11/19 08:06:12;;;;;;;0.00;0.00;;;;;;;7.21;100.00;98044.59;5005564;28;20229;-59
2022/11/19 08:08:39;;;;;;;0.00;0.00;;;;;;;7.22;100.00;98041.06;5002471;28;20241;-59
2022/11/19 08:11:07;;;;;;;0.00;0.00;;;;;;;7.27;100.00;98045.00;5005809;28;20912;-58
2022/11/19 08:13:34;;;;;;;0.10;0.10;;;;;;;7.35;100.00;98050.28;5002582;28;20236;-58
2022/11/19 08:16:02;;;;;;;0.00;0.00;;;;;;;7.20;100.00;98040.38;5005287;28;20236;-59
2022/11/19 08:18:29;;;;;;;0.00;0.00;;;;;;;7.26;100.00;98046.75;5002783;28;20220;-59
2022/11/19 08:20:56;;;;;;;0.00;0.00;;;;;;;7.30;100.00;98048.09;5005298;28;20243;-58
2022/11/19 08:23:23;;;;;;;0.00;0.00;;;;;;;7.43;100.00;98052.16;5001070;28;20252;-58
2022/11/19 08:25:51;;;;;;;0.00;0.00;;;;;;;7.64;100.00;98055.31;5004791;28;20240;-58
2022/11/19 08:28:20;;;;;;;0.00;0.00;;;;;;;7.81;100.00;98058.09;5002207;28;20648;-58
2022/11/19 08:30:46;;;;;;;0.00;0.00;;;;;;;7.83;100.00;98059.56;5005246;28;20244;-59
2022/11/19 08:33:13;;;;;;;0.00;0.00;;;;;;;7.91;100.00;98055.41;5002177;28;20623;-59
2022/11/19 08:35:41;;;;;;;0.00;0.00;;;;;;;7.77;100.00;98064.53;5003454;28;20624;-58
2022/11/19 08:38:08;;;;;;;0.00;0.00;;;;;;;7.69;100.00;98057.47;5005346;28;20282;-58
2022/11/19 08:40:35;;;;;;;0.00;0.00;;;;;;;7.61;100.00;98058.19;5002462;28;20236;-58
2022/11/19 08:43:00;;;;;;;0.00;0.00;;;;;;;7.65;100.00;98059.53;5004936;28;20228;-59
2022/11/19 08:45:32;;;;;;;0.00;0.00;;;;;;;7.78;100.00;98069.56;5000769;28;20245;-59
2022/11/19 08:48:00;;;;;;;0.00;0.00;;;;;;;7.87;100.00;98064.47;5004462;28;20247;-58
2022/11/19 08:50:28;;;;;;;0.00;0.00;;;;;;;7.90;100.00;98067.59;5001446;28;20242;-59
2022/11/19 08:52:57;;;;;;;0.00;0.00;;;;;;;7.89;100.00;98068.56;5009699;28;20240;-59
2022/11/19 08:55:25;;;;;;;0.00;0.00;;;;;;;7.89;100.00;98059.94;5001911;28;20291;-59
2022/11/19 08:57:51;;;;;;;0.00;0.00;;;;;;;7.97;100.00;98060.81;5004296;28;20233;-58
2022/11/19 09:00:20;;;;;;;0.00;0.00;;;;;;;8.06;100.00;98064.31;5001326;28;20286;-59
2022/11/19 09:02:46;;;;;;;0.00;0.00;;;;;;;8.13;100.00;98067.13;5004966;28;20319;-59
2022/11/19 09:05:15;;;;;;;0.00;0.00;;;;;;;8.15;100.00;98065.19;5002035;28;20321;-58
2022/11/19 09:07:42;;;;;;;0.00;0.00;;;;;;;8.31;100.00;98059.34;5004708;28;20705;-59
2022/11/19 09:10:10;;;;;;;0.00;0.00;;;;;;;8.40;100.00;98055.00;5003904;28;20236;-58
2022/11/19 09:12:37;;;;;;;0.00;0.00;;;;;;;8.41;100.00;98057.47;5002024;28;20244;-59
2022/11/19 09:15:05;;;;;;;0.00;0.00;;;;;;;8.47;100.00;98061.25;5004636;28;20240;-58
2022/11/19 09:17:32;;;;;;;0.00;0.00;;;;;;;8.52;99.14;98063.41;5001776;28;20243;-59
2022/11/19 09:20:00;;;;;;;0.00;0.00;;;;;;;8.42;100.00;98064.31;5008200;28;20234;-59
2022/11/19 09:22:27;;;;;;;0.00;0.00;;;;;;;8.38;96.88;98067.34;5006009;28;20228;-58
2022/11/19 09:24:53;;;;;;;0.00;0.00;;;;;;;8.33;98.67;98070.41;5008741;28;20236;-59
2022/11/19 09:27:23;;;;;;;0.00;0.00;;;;;;;8.30;98.39;98070.72;5005948;28;20592;-58
2022/11/19 09:29:49;;;;;;;0.00;0.00;;;;;;;8.42;99.65;98076.47;5008395;28;20253;-59
2022/11/19 09:32:16;;;;;;;0.00;0.00;;;;;;;8.40;97.98;98078.41;5005527;28;20225;-58
2022/11/19 09:34:44;;;;;;;0.00;0.00;;;;;;;8.38;96.08;98075.16;5008333;28;20232;-59
2022/11/19 09:37:11;;;;;;;0.00;0.00;;;;;;;8.47;97.57;98078.66;5008466;28;20586;-58
2022/11/19 09:39:37;;;;;;;0.00;0.00;;;;;;;8.28;96.88;98090.84;5005603;28;20583;-58
2022/11/19 09:42:14;;;;;;;0.00;0.00;;;;;;;8.25;96.31;98091.94;5007487;28;20286;-58
2022/11/19 09:45:00;;;;;;;0.00;0.00;;;;;;;8.20;96.34;98088.16;5005137;28;20235;-59
2022/11/19 09:47:40;;;;;;;0.00;0.00;;;;;;;8.30;96.75;98090.69;5004963;28;20290;-61
2022/11/19 09:50:16;;;;;;;0.00;0.00;;;;;;;8.23;96.84;98095.66;5008299;28;20232;-60
2022/11/19 09:52:46;;;;;;;0.00;0.00;;;;;;;8.28;97.73;98098.66;5005833;28;20324;-59
2022/11/19 09:55:19;;;;;;;0.00;0.00;;;;;;;8.37;99.46;98100.34;5004202;28;20237;-60
2022/11/19 09:57:49;;;;;;;0.00;0.00;;;;;;;8.16;98.01;98097.22;5007548;28;20290;-59
2022/11/19 10:00:21;;;;;;;0.00;0.00;;;;;;;8.27;97.17;98099.63;5002742;28;20624;-60
2022/11/19 10:02:48;;;;;;;0.00;0.00;;;;;;;8.36;98.59;98096.13;5006342;28;20238;-61
2022/11/19 10:05:17;;;;;;;0.00;0.00;;;;;;;8.43;97.52;98091.13;5004594;28;20267;-60
2022/11/19 10:07:55;;;;;;;0.00;0.00;;;;;;;8.47;100.00;98086.44;5007429;28;20631;-60
2022/11/19 10:10:34;;;;;;;0.00;0.00;;;;;;;8.39;100.00;98101.03;5004142;28;20277;-60
2022/11/19 10:13:16;;;;;;;0.00;0.00;;;;;;;8.38;99.01;98101.16;5006412;28;20232;-59
2022/11/19 10:16:01;;;;;;;0.00;0.00;;;;;;;8.32;100.00;98101.75;5001767;28;20627;-60
2022/11/19 10:18:40;;;;;;;0.00;0.00;;;;;;;8.49;100.00;98092.31;5002544;28;20284;-60
2022/11/19 10:21:11;;;;;;;0.00;0.00;;;;;;;8.64;100.00;98098.63;5006244;28;20236;-60
2022/11/19 10:23:54;;;;;;;0.00;0.00;;;;;;;8.46;98.37;98101.22;4994620;28;20232;-60
2022/11/19 10:26:30;;;;;;;0.00;0.00;;;;;;;8.52;97.16;98094.63;5002854;28;20706;-60
2022/11/19 10:28:58;;;;;;;0.00;0.00;;;;;;;8.52;97.26;98089.41;5005989;28;20255;-60
2022/11/19 10:31:32;;;;;;;0.00;0.00;;;;;;;8.45;98.08;98088.38;5001270;28;21201;-60
2022/11/19 10:34:05;;;;;;;0.00;0.00;;;;;;;8.23;99.06;98101.69;5006815;28;20230;-60
2022/11/19 10:36:38;;;;;;;0.00;0.00;;;;;;;8.20;100.00;98096.78;5003448;28;20232;-60
2022/11/19 10:39:12;;;;;;;0.00;0.00;;;;;;;8.03;100.00;98092.38;5005481;28;20225;-60
2022/11/19 10:41:44;;;;;;;0.00;0.00;;;;;;;8.16;100.00;98092.03;5003376;28;20243;-60
2022/11/19 10:44:39;;;;;;;0.10;0.10;;;;;;;8.11;100.00;98089.84;5006779;28;20256;-59
2022/11/19 10:47:12;;;;;;;0.03;0.03;;;;;;;8.06;100.00;98092.09;5004439;28;20704;-59
2022/11/19 10:49:41;;;;;;;0.00;0.00;;;;;;;8.03;100.00;98094.97;5004249;28;20299;-60
2022/11/19 10:52:17;;;;;;;0.00;0.00;;;;;;;8.12;100.00;98099.28;5001408;28;20303;-60
2022/11/19 10:54:46;;;;;;;0.00;0.00;;;;;;;8.24;100.00;98102.50;5002314;28;20240;-60
2022/11/19 10:57:17;;;;;;;0.03;0.03;;;;;;;8.23;100.00;98098.28;5002439;28;20700;-60
2022/11/19 10:59:44;;;;;;;0.00;0.00;;;;;;;8.15;100.00;98098.19;5006618;28;20580;-59
2022/11/19 11:02:22;;;;;;;0.00;0.00;;;;;;;8.45;98.57;98098.78;5006462;28;20243;-58
2022/11/19 11:05:05;;;;;;;0.00;0.00;;;;;;;8.66;96.45;98093.28;4991287;28;20316;-58
2022/11/19 11:07:55;;;;;;;0.00;0.00;;;;;;;8.63;96.38;98086.56;5003575;28;20231;-58
2022/11/19 11:10:37;;;;;;;0.00;0.00;;;;;;;8.75;93.85;98094.13;5002381;28;20684;-58
2022/11/19 11:16:04;;;;;;;0.03;0.03;;;;;;;8.82;95.84;98080.38;5003682;28;20251;-58
2022/11/19 11:18:32;;;;;;;0.00;0.00;;;;;;;8.91;95.26;98083.03;5003630;28;20255;-58
2022/11/19 11:20:59;;;;;;;0.00;0.00;;;;;;;9.16;96.22;98086.59;5005765;28;20882;-58
2022/11/19 11:23:29;;;;;;;0.00;0.00;;;;;;;9.22;95.97;98083.38;5002906;28;20596;-58
2022/11/19 11:26:02;;;;;;;0.00;0.00;;;;;;;9.28;95.93;98079.31;5005558;28;20236;-58
2022/11/19 11:28:29;;;;;;;0.00;0.00;;;;;;;9.25;96.70;98080.44;5002940;28;20228;-59
2022/11/19 11:30:58;;;;;;;0.00;0.00;;;;;;;9.39;97.00;98079.03;5005919;28;20311;-59
2022/11/19 11:33:31;;;;;;;0.00;0.00;;;;;;;9.50;96.16;98084.94;5003044;28;20239;-58
2022/11/19 11:36:02;;;;;;;0.00;0.00;;;;;;;9.57;95.76;98080.72;5006049;28;20817;-59
2022/11/19 11:38:29;;;;;;;0.00;0.00;;;;;;;9.61;94.03;98076.84;5001487;28;20752;-60
2022/11/19 11:41:02;;;;;;;0.00;0.00;;;;;;;9.53;94.88;98076.81;5005973;28;20351;-58
2022/11/19 11:43:33;;;;;;;0.00;0.00;;;;;;;9.74;97.44;98081.59;5001778;28;20220;-59
2022/11/19 11:46:02;;;;;;;0.00;0.00;;;;;;;9.81;95.50;98081.78;5005095;28;20242;-60
2022/11/19 11:48:36;;;;;;;0.00;0.00;;;;;;;9.86;85.04;98087.34;5002279;28;20228;-59
2022/11/19 11:51:05;;;;;;;0.00;0.00;;;;;;;9.66;87.26;98074.56;5005388;28;20233;-58
2022/11/19 11:53:33;;;;;;;0.00;0.00;;;;;;;9.74;92.71;98079.81;5001622;28;20777;-59
2022/11/19 11:56:02;;;;;;;0.00;0.00;;;;;;;9.83;90.56;98080.63;5005369;28;20638;-59
2022/11/19 11:58:30;;;;;;;0.00;0.00;;;;;;;10.10;89.42;98070.91;5002507;28;20249;-59
2022/11/19 12:01:12;;;;;;;0.00;0.00;;;;;;;10.34;88.81;98077.13;5005196;28;20360;-58
2022/11/19 12:03:52;;;;;;;0.00;0.00;;;;;;;10.41;87.99;98075.53;5002958;28;20225;-59